createdAt,value
2022-12-27T00:01:35.987Z,3.43
2022-12-27T00:04:03.919Z,3.20
2022-12-27T00:06:31.960Z,3.40
2022-12-27T00:08:59.880Z,3.60
2022-12-27T00:11:30.009Z,2.70
2022-12-27T00:13:59.762Z,3.37
2022-12-27T00:16:29.279Z,3.17
2022-12-27T00:18:57.489Z,2.90
2022-12-27T00:21:25.571Z,2.90
2022-12-27T00:23:56.203Z,2.63
2022-12-27T00:26:26.106Z,3.20
2022-12-27T00:28:54.371Z,3.90
2022-12-27T00:31:23.613Z,4.83
2022-12-27T00:33:55.055Z,3.53
2022-12-27T00:36:25.160Z,2.27
2022-12-27T00:38:53.824Z,2.90
2022-12-27T00:41:21.953Z,2.63
2022-12-27T00:43:49.989Z,2.50
2022-12-27T00:46:18.070Z,2.83
2022-12-27T00:48:46.419Z,2.97
2022-12-27T00:51:18.072Z,2.63
2022-12-27T00:53:46.988Z,2.85
2022-12-27T00:56:17.453Z,2.90
2022-12-27T00:58:45.555Z,2.50
2022-12-27T01:01:15.126Z,2.47
2022-12-27T01:03:43.172Z,2.70
2022-12-27T01:06:13.160Z,2.53
2022-12-27T01:08:42.956Z,2.40
2022-12-27T01:11:11.307Z,2.50
2022-12-27T01:13:40.159Z,2.70
2022-12-27T01:16:11.170Z,2.33
2022-12-27T01:18:38.963Z,2.13
2022-12-27T01:21:08.150Z,2.10
2022-12-27T01:23:36.040Z,3.37
2022-12-27T01:26:07.096Z,2.73
2022-12-27T01:28:35.272Z,2.03
2022-12-27T01:31:06.250Z,2.90
2022-12-27T01:33:33.976Z,2.30
2022-12-27T01:36:09.611Z,1.90
2022-12-27T01:38:37.327Z,2.40
2022-12-27T01:41:26.546Z,2.07
2022-12-27T01:43:53.363Z,2.43
2022-12-27T01:46:21.125Z,2.07
2022-12-27T01:48:48.837Z,2.37
2022-12-27T01:51:17.332Z,1.77
2022-12-27T01:53:49.108Z,2.20
2022-12-27T01:56:21.597Z,2.30
2022-12-27T01:58:53.905Z,1.93
2022-12-27T02:01:27.614Z,2.40
2022-12-27T02:03:58.308Z,2.70
2022-12-27T02:06:28.619Z,2.27
2022-12-27T02:09:02.626Z,2.10
2022-12-27T02:11:53.496Z,1.77
2022-12-27T02:14:28.133Z,1.83
2022-12-27T02:16:58.137Z,1.80
2022-12-27T02:19:35.387Z,2.67
2022-12-27T02:22:54.204Z,1.83
2022-12-27T02:25:33.239Z,2.40
2022-12-27T02:28:15.111Z,1.93
2022-12-27T02:30:47.949Z,1.53
2022-12-27T02:33:22.460Z,2.40
2022-12-27T02:35:54.670Z,2.00
2022-12-27T02:38:27.521Z,1.70
2022-12-27T02:41:14.882Z,2.30
2022-12-27T02:44:00.450Z,1.40
2022-12-27T02:46:49.324Z,2.10
2022-12-27T02:49:45.006Z,2.03
2022-12-27T02:52:41.474Z,2.10
2022-12-27T02:55:27.155Z,2.00
2022-12-27T02:58:09.000Z,2.00
2022-12-27T03:01:04.041Z,2.00
2022-12-27T03:03:50.366Z,2.10
2022-12-27T03:06:43.003Z,2.20
2022-12-27T03:09:48.756Z,2.17
2022-12-27T03:12:42.717Z,1.90
2022-12-27T03:15:37.621Z,2.70
2022-12-27T03:18:11.512Z,2.03
2022-12-27T03:21:00.652Z,2.23
2022-12-27T03:23:47.524Z,2.30
2022-12-27T03:26:18.323Z,1.50
2022-12-27T03:29:04.975Z,2.20
2022-12-27T03:31:53.479Z,2.10
2022-12-27T03:34:38.187Z,2.10
2022-12-27T03:37:29.137Z,2.27
2022-12-27T03:40:04.484Z,2.37
2022-12-27T03:42:54.097Z,2.00
2022-12-27T03:45:42.831Z,2.13
2022-12-27T03:48:13.967Z,1.77
2022-12-27T03:50:45.629Z,2.13
2022-12-27T03:53:19.837Z,2.13
2022-12-27T03:55:48.014Z,3.07
2022-12-27T03:58:15.903Z,2.50
2022-12-27T04:00:43.645Z,2.73
2022-12-27T04:03:11.473Z,3.30
2022-12-27T04:05:39.205Z,2.38
2022-12-27T04:08:24.565Z,2.27
2022-12-27T04:11:11.371Z,2.30
2022-12-27T04:13:56.707Z,2.70
2022-12-27T04:16:42.289Z,2.00
2022-12-27T04:19:27.755Z,1.90
2022-12-27T04:22:13.265Z,1.97
2022-12-27T04:24:58.603Z,1.80
2022-12-27T04:27:45.250Z,2.10
2022-12-27T04:30:30.709Z,1.53
2022-12-27T04:33:16.140Z,2.77
2022-12-27T04:35:43.844Z,2.17
2022-12-27T04:38:11.539Z,2.97
2022-12-27T04:41:02.212Z,2.30
2022-12-27T04:43:48.993Z,2.53
2022-12-27T04:46:39.374Z,2.60
2022-12-27T04:49:24.904Z,2.17
2022-12-27T04:52:10.360Z,2.83
2022-12-27T04:54:55.969Z,2.60
2022-12-27T04:57:23.751Z,2.13
2022-12-27T05:00:10.252Z,2.27
2022-12-27T05:02:38.375Z,2.80
2022-12-27T05:05:07.576Z,2.13
2022-12-27T05:07:52.899Z,2.43
2022-12-27T05:10:38.476Z,2.20
2022-12-27T05:13:29.495Z,2.03
2022-12-27T05:15:58.567Z,2.17
2022-12-27T05:18:26.324Z,2.30
2022-12-27T05:20:54.240Z,2.33
2022-12-27T05:23:39.826Z,2.27
2022-12-27T05:26:07.504Z,2.57
2022-12-27T05:28:35.215Z,2.70
2022-12-27T05:31:04.306Z,1.97
2022-12-27T05:33:32.952Z,2.67
2022-12-27T05:36:01.093Z,2.77
2022-12-27T05:38:29.060Z,2.53
2022-12-27T05:41:00.236Z,2.43
2022-12-27T05:43:28.531Z,2.30
2022-12-27T05:45:56.785Z,2.03
2022-12-27T05:48:25.865Z,1.70
2022-12-27T05:50:53.571Z,2.37
2022-12-27T05:53:21.279Z,2.17
2022-12-27T05:55:54.879Z,2.70
2022-12-27T05:58:22.645Z,2.33
2022-12-27T06:00:50.348Z,2.57
2022-12-27T06:03:18.261Z,3.43
2022-12-27T06:05:48.829Z,2.20
2022-12-27T06:08:16.579Z,2.47
2022-12-27T06:10:44.326Z,2.53
2022-12-27T06:13:13.110Z,2.57
2022-12-27T06:15:40.853Z,2.85
2022-12-27T06:18:08.585Z,2.90
2022-12-27T06:20:36.339Z,3.23
2022-12-27T06:23:05.399Z,2.50
2022-12-27T06:25:33.082Z,2.50
2022-12-27T06:28:00.768Z,2.47
2022-12-27T06:30:32.863Z,2.20
2022-12-27T06:33:03.661Z,2.83
2022-12-27T06:35:31.365Z,2.37
2022-12-27T06:37:59.057Z,2.77
2022-12-27T06:40:28.117Z,2.47
2022-12-27T06:42:55.801Z,2.30
2022-12-27T06:45:23.637Z,3.37
2022-12-27T06:47:51.393Z,2.03
2022-12-27T06:50:19.195Z,2.40
2022-12-27T06:52:46.891Z,2.43
2022-12-27T06:55:14.636Z,2.47
2022-12-27T06:57:43.713Z,2.30
2022-12-27T07:00:13.364Z,2.30
2022-12-27T07:02:41.195Z,1.90
2022-12-27T07:05:09.397Z,2.53
2022-12-27T07:07:37.103Z,2.60
2022-12-27T07:10:05.591Z,2.60
2022-12-27T07:12:36.676Z,2.10
2022-12-27T07:15:07.424Z,2.50
2022-12-27T07:17:36.081Z,3.20
2022-12-27T07:20:04.327Z,3.20
2022-12-27T07:22:32.095Z,2.73
2022-12-27T07:24:59.865Z,2.80
2022-12-27T07:27:27.569Z,2.40
2022-12-27T07:29:55.286Z,2.50
2022-12-27T07:32:24.327Z,2.43
2022-12-27T07:34:52.045Z,2.40
2022-12-27T07:37:20.412Z,3.13
2022-12-27T07:39:48.430Z,3.20
2022-12-27T07:42:16.192Z,3.00
2022-12-27T07:44:43.918Z,2.80
2022-12-27T07:47:11.637Z,2.90
2022-12-27T07:49:40.695Z,3.10
2022-12-27T07:52:08.400Z,2.73
2022-12-27T07:54:36.244Z,3.20
2022-12-27T07:57:04.057Z,3.20
2022-12-27T07:59:31.782Z,2.93
2022-12-27T08:02:05.310Z,2.73
2022-12-27T08:04:34.944Z,3.30
2022-12-27T08:07:07.379Z,3.07
2022-12-27T08:09:39.630Z,2.50
2022-12-27T08:12:08.489Z,2.80
2022-12-27T08:14:36.332Z,3.60
2022-12-27T08:17:06.848Z,3.20
2022-12-27T08:19:34.781Z,2.90
2022-12-27T08:22:05.139Z,3.00
2022-12-27T08:24:32.910Z,3.17
2022-12-27T08:27:00.709Z,3.65
2022-12-27T08:29:28.627Z,2.70
2022-12-27T08:31:56.382Z,3.00
2022-12-27T08:34:24.178Z,2.63
2022-12-27T08:36:56.355Z,3.30
2022-12-27T08:39:25.862Z,2.53
2022-12-27T08:41:54.201Z,3.30
2022-12-27T08:44:22.283Z,3.10
2022-12-27T08:46:50.197Z,2.87
2022-12-27T08:49:17.909Z,3.37
2022-12-27T08:51:45.710Z,2.70
2022-12-27T08:54:13.466Z,4.17
2022-12-27T08:56:42.540Z,2.70
2022-12-27T08:59:10.312Z,4.00
2022-12-27T09:01:38.193Z,4.57
2022-12-27T09:04:06.175Z,3.67
2022-12-27T09:06:33.976Z,3.33
2022-12-27T09:09:01.736Z,3.93
2022-12-27T09:11:31.263Z,3.60
2022-12-27T09:14:01.920Z,3.37
2022-12-27T09:16:30.611Z,3.10
2022-12-27T09:18:59.916Z,3.70
2022-12-27T09:21:31.571Z,4.03
2022-12-27T09:23:59.667Z,3.87
2022-12-27T09:26:28.975Z,3.27
2022-12-27T09:28:57.400Z,3.47
2022-12-27T09:31:27.213Z,3.00
2022-12-27T09:33:55.433Z,3.97
2022-12-27T09:36:25.484Z,4.30
2022-12-27T09:38:54.623Z,3.87
2022-12-27T09:42:33.817Z,2.97
2022-12-27T09:44:27.492Z,3.10
2022-12-27T09:47:00.125Z,3.60
2022-12-27T09:49:32.273Z,3.93
2022-12-27T09:52:04.281Z,3.73
2022-12-27T09:54:37.444Z,3.50
2022-12-27T09:57:20.844Z,4.10
2022-12-27T09:59:51.021Z,3.80
2022-12-27T10:02:22.833Z,4.03
2022-12-27T10:07:50.581Z,4.30
2022-12-27T10:10:24.344Z,4.43
2022-12-27T10:13:08.925Z,5.50
2022-12-27T10:15:48.142Z,3.63
2022-12-27T10:18:31.036Z,4.80
2022-12-27T10:21:12.355Z,3.63
2022-12-27T10:23:44.313Z,4.53
2022-12-27T10:26:14.964Z,3.77
2022-12-27T10:28:44.929Z,3.67
2022-12-27T10:31:15.978Z,3.60
2022-12-27T10:33:46.428Z,4.10
2022-12-27T10:36:17.725Z,4.37
2022-12-27T10:38:45.602Z,3.90
2022-12-27T10:41:28.038Z,4.33
2022-12-27T10:43:56.544Z,5.03
2022-12-27T10:46:32.502Z,4.03
2022-12-27T10:49:20.521Z,3.90
2022-12-27T10:51:50.040Z,3.80
2022-12-27T10:54:23.169Z,3.90
2022-12-27T10:56:51.007Z,4.00
2022-12-27T10:59:20.160Z,4.03
2022-12-27T11:01:49.876Z,3.17
2022-12-27T11:04:21.729Z,4.20
2022-12-27T11:06:51.496Z,4.10
2022-12-27T11:09:25.953Z,4.33
2022-12-27T11:11:54.130Z,4.40
2022-12-27T11:14:22.007Z,4.90
2022-12-27T11:16:50.230Z,5.00
2022-12-27T11:19:26.068Z,4.00
2022-12-27T11:21:55.777Z,3.80
2022-12-27T11:24:24.122Z,4.83
2022-12-27T11:26:54.689Z,4.40
2022-12-27T11:29:25.417Z,4.40
2022-12-27T11:31:54.764Z,3.97
2022-12-27T11:34:30.808Z,4.70
2022-12-27T11:37:07.171Z,4.37
2022-12-27T11:39:39.929Z,4.57
2022-12-27T11:42:12.017Z,4.43
2022-12-27T11:44:44.809Z,4.13
2022-12-27T11:47:19.386Z,4.13
2022-12-27T11:49:54.070Z,4.73
2022-12-27T11:52:44.131Z,4.40
2022-12-27T11:55:34.557Z,3.90
2022-12-27T11:58:31.976Z,4.93
2022-12-27T12:01:11.653Z,4.00
2022-12-27T12:04:11.492Z,4.03
2022-12-27T12:06:53.810Z,4.17
2022-12-27T12:09:44.576Z,3.90
2022-12-27T12:12:53.296Z,3.63
2022-12-27T12:16:01.377Z,4.07
2022-12-27T12:19:04.008Z,3.23
2022-12-27T12:21:37.809Z,3.40
2022-12-27T12:24:33.785Z,2.87
2022-12-27T12:27:17.329Z,3.20
2022-12-27T12:30:12.281Z,3.33
2022-12-27T12:32:55.233Z,3.20
2022-12-27T12:35:37.833Z,3.60
2022-12-27T12:38:17.902Z,2.90
2022-12-27T12:41:13.981Z,3.60
2022-12-27T12:43:56.944Z,4.33
2022-12-27T12:46:32.135Z,3.90
2022-12-27T12:49:20.588Z,3.73
2022-12-27T12:52:02.790Z,4.00
2022-12-27T12:54:51.924Z,3.10
2022-12-27T12:57:36.219Z,3.70
2022-12-27T13:00:12.614Z,4.40
2022-12-27T13:03:18.969Z,3.50
2022-12-27T13:05:52.791Z,4.13
2022-12-27T13:08:27.666Z,3.77
2022-12-27T13:11:24.860Z,3.20
2022-12-27T13:14:07.710Z,3.43
2022-12-27T13:16:46.744Z,3.70
2022-12-27T13:19:40.534Z,4.03
2022-12-27T13:22:16.705Z,3.73
2022-12-27T13:24:56.952Z,3.63
2022-12-27T13:27:31.437Z,3.87
2022-12-27T13:30:14.963Z,3.97
2022-12-27T13:32:56.986Z,3.00
2022-12-27T13:35:42.214Z,3.33
2022-12-27T13:38:27.707Z,2.60
2022-12-27T13:41:20.654Z,3.07
2022-12-27T13:44:08.703Z,2.77
2022-12-27T13:46:54.448Z,2.53
2022-12-27T13:49:35.672Z,2.63
2022-12-27T13:52:16.773Z,2.40
2022-12-27T13:55:22.360Z,2.63
2022-12-27T13:58:38.968Z,3.10
2022-12-27T14:01:28.333Z,3.20
2022-12-27T14:04:14.235Z,3.00
2022-12-27T14:06:59.190Z,2.77
2022-12-27T14:09:53.858Z,2.57
2022-12-27T14:12:55.233Z,2.90
2022-12-27T14:15:28.864Z,2.40
2022-12-27T14:18:18.059Z,2.80
2022-12-27T14:21:10.594Z,2.40
2022-12-27T14:24:03.902Z,2.03
2022-12-27T14:27:16.724Z,2.47
2022-12-27T14:30:28.606Z,2.60
2022-12-27T14:33:35.083Z,2.33
2022-12-27T14:36:52.009Z,2.33
2022-12-27T14:39:47.336Z,2.13
2022-12-27T14:42:47.713Z,2.17
2022-12-27T14:45:57.693Z,2.30
2022-12-27T14:48:50.490Z,2.37
2022-12-27T14:52:00.035Z,2.33
2022-12-27T14:55:11.435Z,2.00
2022-12-27T14:57:48.768Z,2.10
2022-12-27T15:00:18.946Z,1.97
2022-12-27T15:03:05.654Z,2.33
2022-12-27T15:05:53.147Z,3.00
2022-12-27T15:08:42.734Z,2.03
2022-12-27T15:11:39.187Z,2.42
2022-12-27T15:14:28.442Z,1.70
2022-12-27T15:17:06.049Z,2.40
2022-12-27T15:19:50.236Z,2.20
2022-12-27T15:22:28.537Z,2.37
2022-12-27T15:25:03.626Z,2.00
2022-12-27T15:27:36.489Z,2.40
2022-12-27T15:30:17.786Z,2.50
2022-12-27T15:32:53.957Z,1.80
2022-12-27T15:35:49.655Z,2.37
2022-12-27T15:38:19.269Z,2.50
2022-12-27T15:41:07.279Z,2.47
2022-12-27T15:43:56.804Z,1.83
2022-12-27T15:46:52.785Z,2.20
2022-12-27T15:49:39.460Z,2.23
2022-12-27T15:52:14.155Z,3.33
2022-12-27T15:55:00.627Z,2.57
2022-12-27T15:57:45.189Z,1.83
2022-12-27T16:00:27.815Z,2.13
2022-12-27T16:02:59.554Z,2.57
2022-12-27T16:05:52.222Z,2.50
2022-12-27T16:08:30.480Z,2.40
2022-12-27T16:10:58.902Z,2.47
2022-12-27T16:13:42.884Z,2.57
2022-12-27T16:16:54.705Z,2.37
2022-12-27T16:19:51.732Z,2.50
2022-12-27T16:22:27.532Z,2.60
2022-12-27T16:24:56.198Z,2.20
2022-12-27T16:27:31.294Z,2.50
2022-12-27T16:29:59.614Z,2.60
2022-12-27T16:32:29.592Z,3.07
2022-12-27T16:35:13.354Z,2.47
2022-12-27T16:37:45.851Z,3.83
2022-12-27T16:40:37.084Z,2.20
2022-12-27T16:43:42.077Z,2.17
2022-12-27T16:46:36.367Z,2.20
2022-12-27T16:49:34.177Z,2.33
2022-12-27T16:52:21.736Z,2.17
2022-12-27T16:54:55.520Z,2.30
2022-12-27T16:57:42.044Z,2.97
2022-12-27T17:00:37.059Z,2.73
2022-12-27T17:03:46.307Z,2.17
2022-12-27T17:06:59.737Z,2.30
2022-12-27T17:09:45.299Z,2.10
2022-12-27T17:12:21.668Z,2.50
2022-12-27T17:14:52.172Z,2.60
2022-12-27T17:17:23.148Z,3.37
2022-12-27T17:19:56.495Z,2.30
2022-12-27T17:22:30.443Z,2.47
2022-12-27T17:25:03.986Z,2.60
2022-12-27T17:27:57.707Z,2.40
2022-12-27T17:30:27.054Z,2.00
2022-12-27T17:33:19.569Z,3.17
2022-12-27T17:36:05.492Z,2.40
2022-12-27T17:38:44.380Z,4.43
2022-12-27T17:41:39.794Z,2.10
2022-12-27T17:44:34.346Z,2.70
2022-12-27T17:47:16.116Z,2.70
2022-12-27T17:49:44.176Z,2.53
2022-12-27T17:52:36.029Z,2.20
2022-12-27T17:55:35.409Z,2.10
2022-12-27T17:58:08.172Z,2.47
2022-12-27T18:00:41.857Z,2.33
2022-12-27T18:03:12.777Z,2.27
2022-12-27T18:05:43.523Z,2.33
2022-12-27T18:08:23.277Z,2.53
2022-12-27T18:10:51.385Z,2.13
2022-12-27T18:13:23.636Z,2.60
2022-12-27T18:15:52.005Z,2.53
2022-12-27T18:18:25.133Z,2.40
2022-12-27T18:20:56.617Z,1.67
2022-12-27T18:23:24.466Z,2.70
2022-12-27T18:25:57.553Z,2.90
2022-12-27T18:28:32.938Z,2.03
2022-12-27T18:31:06.186Z,2.07
2022-12-27T18:33:37.381Z,1.90
2022-12-27T18:36:08.951Z,1.70
2022-12-27T18:38:40.931Z,1.83
2022-12-27T18:41:11.487Z,1.90
2022-12-27T18:43:46.562Z,2.10
2022-12-27T18:46:17.463Z,1.70
2022-12-27T18:48:45.823Z,2.03
2022-12-27T18:51:14.118Z,2.10
2022-12-27T18:53:43.852Z,1.97
2022-12-27T18:56:27.026Z,2.17
2022-12-27T18:59:03.064Z,1.90
2022-12-27T19:01:39.483Z,2.57
2022-12-27T19:04:22.208Z,1.80
2022-12-27T19:06:55.235Z,2.33
2022-12-27T19:09:26.891Z,2.33
2022-12-27T19:11:56.695Z,2.37
2022-12-27T19:14:27.824Z,2.47
2022-12-27T19:16:58.357Z,2.30
2022-12-27T19:19:29.242Z,2.63
2022-12-27T19:21:57.661Z,2.47
2022-12-27T19:24:33.778Z,2.80
2022-12-27T19:27:16.360Z,3.07
2022-12-27T19:29:53.056Z,3.07
2022-12-27T19:32:25.118Z,2.80
2022-12-27T19:34:56.818Z,3.20
2022-12-27T19:37:26.800Z,3.53
2022-12-27T19:39:55.004Z,3.57
2022-12-27T19:42:28.031Z,2.87
2022-12-27T19:44:57.119Z,3.20
2022-12-27T19:47:24.938Z,2.60
2022-12-27T19:49:52.674Z,3.00
2022-12-27T19:52:22.498Z,2.80
2022-12-27T19:54:52.365Z,2.70
2022-12-27T19:57:22.125Z,2.80
2022-12-27T19:59:49.813Z,2.53
2022-12-27T20:02:20.701Z,3.00
2022-12-27T20:04:48.614Z,3.67
2022-12-27T20:07:21.000Z,3.20
2022-12-27T20:09:49.315Z,2.43
2022-12-27T20:12:17.369Z,2.77
2022-12-27T20:14:45.166Z,2.50
2022-12-27T20:17:12.889Z,2.83
2022-12-27T20:19:41.952Z,3.37
2022-12-27T20:22:09.749Z,3.20
2022-12-27T20:24:37.987Z,3.20
2022-12-27T20:27:06.250Z,2.63
2022-12-27T20:29:34.030Z,2.63
2022-12-27T20:32:01.740Z,3.33
2022-12-27T20:34:29.495Z,2.70
2022-12-27T20:36:58.513Z,3.03
2022-12-27T20:39:26.240Z,3.00
2022-12-27T20:41:55.855Z,3.00
2022-12-27T20:44:23.547Z,2.87
2022-12-27T20:46:51.573Z,3.47
2022-12-27T20:49:19.294Z,3.40
2022-12-27T20:51:46.983Z,2.57
2022-12-27T20:54:18.261Z,3.20
2022-12-27T20:56:45.963Z,3.80
2022-12-27T20:59:13.656Z,2.97
2022-12-27T21:01:41.651Z,3.40
2022-12-27T21:04:10.823Z,3.27
2022-12-27T21:06:38.936Z,3.23
2022-12-27T21:09:08.353Z,3.10
2022-12-27T21:11:38.044Z,2.90
2022-12-27T21:14:07.071Z,2.70
2022-12-27T21:16:36.661Z,2.70
2022-12-27T21:19:05.423Z,2.50
2022-12-27T21:21:35.472Z,3.00
2022-12-27T21:24:03.287Z,3.10
2022-12-27T21:26:33.141Z,2.90
2022-12-27T21:29:03.829Z,3.07
2022-12-27T21:31:32.385Z,3.03
2022-12-27T21:34:00.487Z,3.07
2022-12-27T21:36:30.290Z,3.27
2022-12-27T21:38:58.668Z,3.17
2022-12-27T21:41:28.968Z,2.80
2022-12-27T21:43:57.076Z,2.60
2022-12-27T21:46:27.932Z,2.77
2022-12-27T21:48:57.263Z,2.87
2022-12-27T21:51:26.469Z,2.83
2022-12-27T21:53:54.632Z,3.00
2022-12-27T21:56:23.314Z,2.87
2022-12-27T21:58:51.587Z,2.90
2022-12-27T22:01:21.478Z,3.10
2022-12-27T22:03:52.485Z,3.40
2022-12-27T22:06:22.511Z,2.80
2022-12-27T22:08:52.080Z,3.07
2022-12-27T22:11:21.330Z,2.67
2022-12-27T22:13:49.213Z,2.63
2022-12-27T22:16:19.025Z,2.47
2022-12-27T22:18:47.691Z,2.57
2022-12-27T22:21:19.741Z,2.50
2022-12-27T22:23:49.459Z,3.43
2022-12-27T22:26:19.419Z,2.70
2022-12-27T22:28:47.606Z,2.70
2022-12-27T22:31:16.897Z,3.37
2022-12-27T22:33:44.961Z,2.67
2022-12-27T22:36:15.116Z,2.43
2022-12-27T22:38:47.670Z,2.40
2022-12-27T22:41:19.184Z,2.50
2022-12-27T22:43:51.679Z,3.40
2022-12-27T22:46:20.791Z,2.10
2022-12-27T22:48:50.707Z,3.40
2022-12-27T22:51:20.720Z,3.70
2022-12-27T22:53:50.399Z,3.57
2022-12-27T22:56:19.977Z,2.53
2022-12-27T22:58:48.229Z,3.90
2022-12-27T23:01:17.995Z,2.70
2022-12-27T23:03:46.456Z,2.33
2022-12-27T23:06:14.563Z,2.47
2022-12-27T23:08:43.791Z,2.87
2022-12-27T23:11:15.400Z,2.92
2022-12-27T23:13:43.244Z,2.50
2022-12-27T23:16:11.402Z,2.53
2022-12-27T23:18:39.926Z,3.50
2022-12-27T23:21:21.313Z,2.97
2022-12-27T23:23:51.579Z,2.60
2022-12-27T23:26:23.056Z,2.07
2022-12-27T23:28:52.526Z,2.57
2022-12-27T23:31:21.889Z,2.40
2022-12-27T23:33:50.139Z,3.50
2022-12-27T23:36:18.516Z,2.10
2022-12-27T23:38:46.535Z,2.60
2022-12-27T23:41:16.470Z,2.40
2022-12-27T23:43:54.933Z,2.70
2022-12-27T23:46:25.677Z,2.20
2022-12-27T23:48:53.871Z,2.60
2022-12-27T23:51:22.502Z,2.20
2022-12-27T23:53:50.704Z,2.30
2022-12-27T23:56:20.481Z,2.30
2022-12-27T23:58:51.195Z,2.47
